Pleasant Valley, West Virginia
Current Conditions -  °F | °C
As of 6:53 AM on Saturday 20 Dec 2014 (Local Time) from KCKB Reporting Station
Overcast Overcast  
Wind Chill: 28°   Ceiling: 2200
Heat Index: 28°   Visibility: 10mi
Dew Point: 21°   Wind: 0mph
Humidity: 75%   Direction: NA
Pressure: 30.24"   Gusts: NA
Location:  39.485°N, 80.1426°W
Report Text: KCKB 201153Z AUTO 00000KT 10SM OVC022 M02/M06 A3024 RMK AO2 SLP250 T10221061 11017 21022 51004 TSNO
Loading
Personal Weather Stations






























Interactive Weather Map New forecast layout! Learn more

10-Day Weather Forecast

Advertisements
Track Severe Weather on mobile